sensor_id;sensor_type;location;lat;lon;timestamp;pressure;altitude;pressure_sealevel;temperature;humidity
51524;BME280;37610;51.790;21.590;2023-08-21T00:00:33;100398.86;;;22.04;70.05
51524;BME280;37610;51.790;21.590;2023-08-21T00:04:55;100395.02;;;21.99;70.31
51524;BME280;37610;51.790;21.590;2023-08-21T00:08:56;100391.59;;;21.90;70.83
51524;BME280;37610;51.790;21.590;2023-08-21T00:12:58;100389.83;;;21.86;70.47
51524;BME280;37610;51.790;21.590;2023-08-21T00:17:00;100389.36;;;21.84;70.64
51524;BME280;37610;51.790;21.590;2023-08-21T00:21:01;100389.85;;;21.82;70.75
51524;BME280;37610;51.790;21.590;2023-08-21T00:25:03;100389.82;;;21.78;70.83
51524;BME280;37610;51.790;21.590;2023-08-21T00:29:05;100386.45;;;21.73;70.88
51524;BME280;37610;51.790;21.590;2023-08-21T00:33:07;100384.42;;;21.69;70.83
51524;BME280;37610;51.790;21.590;2023-08-21T00:37:09;100381.48;;;21.66;71.30
51524;BME280;37610;51.790;21.590;2023-08-21T00:41:12;100385.79;;;21.65;71.40
51524;BME280;37610;51.790;21.590;2023-08-21T00:45:13;100386.41;;;21.58;71.64
51524;BME280;37610;51.790;21.590;2023-08-21T00:49:15;100395.95;;;21.52;71.56
51524;BME280;37610;51.790;21.590;2023-08-21T00:53:17;100398.43;;;21.44;71.61
51524;BME280;37610;51.790;21.590;2023-08-21T00:57:19;100401.21;;;21.37;72.10
51524;BME280;37610;51.790;21.590;2023-08-21T01:01:24;100406.80;;;21.34;72.40
51524;BME280;37610;51.790;21.590;2023-08-21T01:05:27;100408.73;;;21.36;71.91
51524;BME280;37610;51.790;21.590;2023-08-21T01:09:58;100411.52;;;21.36;71.85
51524;BME280;37610;51.790;21.590;2023-08-21T01:14:28;100415.61;;;21.33;71.74
51524;BME280;37610;51.790;21.590;2023-08-21T01:18:31;100414.86;;;21.32;71.85
51524;BME280;37610;51.790;21.590;2023-08-21T01:22:40;100416.05;;;21.30;72.14
51524;BME280;37610;51.790;21.590;2023-08-21T01:26:41;100413.63;;;21.31;72.33
51524;BME280;37610;51.790;21.590;2023-08-21T01:30:43;100417.01;;;21.31;72.16
51524;BME280;37610;51.790;21.590;2023-08-21T01:34:46;100414.06;;;21.28;71.94
51524;BME280;37610;51.790;21.590;2023-08-21T01:38:48;100414.33;;;21.28;71.94
51524;BME280;37610;51.790;21.590;2023-08-21T01:42:52;100416.10;;;21.25;72.18
51524;BME280;37610;51.790;21.590;2023-08-21T01:46:54;100411.07;;;21.22;72.36
51524;BME280;37610;51.790;21.590;2023-08-21T01:50:55;100410.58;;;21.24;72.52
51524;BME280;37610;51.790;21.590;2023-08-21T01:54:57;100414.66;;;21.20;72.14
51524;BME280;37610;51.790;21.590;2023-08-21T01:58:59;100415.11;;;21.15;72.29
51524;BME280;37610;51.790;21.590;2023-08-21T02:03:01;100414.89;;;21.09;72.24
51524;BME280;37610;51.790;21.590;2023-08-21T02:07:02;100414.65;;;21.05;72.41
51524;BME280;37610;51.790;21.590;2023-08-21T02:11:04;100418.15;;;21.04;72.48
51524;BME280;37610;51.790;21.590;2023-08-21T02:15:06;100414.77;;;20.98;72.35
51524;BME280;37610;51.790;21.590;2023-08-21T02:19:08;100411.13;;;20.92;72.48
51524;BME280;37610;51.790;21.590;2023-08-21T02:23:09;100409.41;;;20.87;72.89
51524;BME280;37610;51.790;21.590;2023-08-21T02:27:11;100410.34;;;20.88;73.14
51524;BME280;37610;51.790;21.590;2023-08-21T02:31:12;100409.90;;;20.89;73.25
51524;BME280;37610;51.790;21.590;2023-08-21T02:35:14;100412.16;;;20.90;73.18
51524;BME280;37610;51.790;21.590;2023-08-21T02:39:16;100413.23;;;20.86;73.08
51524;BME280;37610;51.790;21.590;2023-08-21T02:43:17;100411.24;;;20.82;72.98
51524;BME280;37610;51.790;21.590;2023-08-21T02:47:19;100407.65;;;20.79;73.11
51524;BME280;37610;51.790;21.590;2023-08-21T02:51:20;100405.94;;;20.75;72.55
51524;BME280;37610;51.790;21.590;2023-08-21T02:55:22;100409.74;;;20.67;72.73
51524;BME280;37610;51.790;21.590;2023-08-21T02:59:23;100405.17;;;20.64;72.94
51524;BME280;37610;51.790;21.590;2023-08-21T03:03:25;100397.73;;;20.63;72.93
51524;BME280;37610;51.790;21.590;2023-08-21T03:07:26;100400.41;;;20.62;73.07
51524;BME280;37610;51.790;21.590;2023-08-21T03:11:28;100398.90;;;20.62;72.97
51524;BME280;37610;51.790;21.590;2023-08-21T03:15:29;100390.16;;;20.58;73.11
51524;BME280;37610;51.790;21.590;2023-08-21T03:19:31;100387.42;;;20.56;72.83
51524;BME280;37610;51.790;21.590;2023-08-21T03:23:32;100388.11;;;20.55;73.39
51524;BME280;37610;51.790;21.590;2023-08-21T03:27:35;100386.13;;;20.54;73.41
51524;BME280;37610;51.790;21.590;2023-08-21T03:31:40;100388.21;;;20.49;72.97
51524;BME280;37610;51.790;21.590;2023-08-21T03:35:42;100389.98;;;20.43;73.30
51524;BME280;37610;51.790;21.590;2023-08-21T03:39:44;100391.54;;;20.43;73.57
51524;BME280;37610;51.790;21.590;2023-08-21T03:43:45;100392.77;;;20.44;73.80
51524;BME280;37610;51.790;21.590;2023-08-21T03:47:47;100391.59;;;20.42;73.65
51524;BME280;37610;51.790;21.590;2023-08-21T03:51:48;100395.62;;;20.40;74.03
51524;BME280;37610;51.790;21.590;2023-08-21T03:55:50;100390.52;;;20.41;73.87
51524;BME280;37610;51.790;21.590;2023-08-21T03:59:51;100392.45;;;20.38;74.17
51524;BME280;37610;51.790;21.590;2023-08-21T04:03:53;100396.11;;;20.41;74.43
51524;BME280;37610;51.790;21.590;2023-08-21T04:07:54;100398.36;;;20.45;74.33
51524;BME280;37610;51.790;21.590;2023-08-21T04:11:56;100395.23;;;20.49;73.67
51524;BME280;37610;51.790;21.590;2023-08-21T04:15:57;100397.55;;;20.49;73.90
51524;BME280;37610;51.790;21.590;2023-08-21T04:19:59;100404.96;;;20.53;74.11
51524;BME280;37610;51.790;21.590;2023-08-21T04:24:01;100403.23;;;20.59;74.01
51524;BME280;37610;51.790;21.590;2023-08-21T04:28:02;100408.51;;;20.65;74.00
51524;BME280;37610;51.790;21.590;2023-08-21T04:32:05;100415.92;;;20.73;74.44
51524;BME280;37610;51.790;21.590;2023-08-21T04:36:06;100417.42;;;20.74;75.60
51524;BME280;37610;51.790;21.590;2023-08-21T04:40:09;100413.55;;;20.84;76.07
51524;BME280;37610;51.790;21.590;2023-08-21T04:44:11;100411.61;;;20.96;76.26
51524;BME280;37610;51.790;21.590;2023-08-21T04:48:12;100406.23;;;21.06;77.17
51524;BME280;37610;51.790;21.590;2023-08-21T04:52:14;100407.10;;;21.18;75.89
51524;BME280;37610;51.790;21.590;2023-08-21T04:56:15;100406.44;;;21.28;75.89
51524;BME280;37610;51.790;21.590;2023-08-21T05:00:17;100409.10;;;21.38;75.86
51524;BME280;37610;51.790;21.590;2023-08-21T05:04:18;100404.34;;;21.47;76.00
51524;BME280;37610;51.790;21.590;2023-08-21T05:08:24;100401.65;;;21.53;76.07
51524;BME280;37610;51.790;21.590;2023-08-21T05:12:26;100400.73;;;21.63;76.50
51524;BME280;37610;51.790;21.590;2023-08-21T05:16:27;100400.64;;;21.72;76.04
51524;BME280;37610;51.790;21.590;2023-08-21T05:20:29;100404.14;;;21.86;76.12
51524;BME280;37610;51.790;21.590;2023-08-21T05:24:30;100400.51;;;21.97;76.05
51524;BME280;37610;51.790;21.590;2023-08-21T05:28:32;100402.16;;;22.08;75.88
51524;BME280;37610;51.790;21.590;2023-08-21T05:32:33;100411.95;;;22.20;76.36
51524;BME280;37610;51.790;21.590;2023-08-21T05:36:35;100411.46;;;22.29;76.37
51524;BME280;37610;51.790;21.590;2023-08-21T05:40:36;100409.23;;;22.40;75.99
51524;BME280;37610;51.790;21.590;2023-08-21T05:44:38;100413.74;;;22.56;75.87
51524;BME280;37610;51.790;21.590;2023-08-21T05:48:39;100416.31;;;22.74;75.89
51524;BME280;37610;51.790;21.590;2023-08-21T05:52:41;100422.21;;;22.90;75.80
51524;BME280;37610;51.790;21.590;2023-08-21T05:56:43;100427.51;;;23.00;75.67
51524;BME280;37610;51.790;21.590;2023-08-21T06:00:46;100434.38;;;23.10;75.33
51524;BME280;37610;51.790;21.590;2023-08-21T06:04:48;100437.58;;;23.24;75.02
51524;BME280;37610;51.790;21.590;2023-08-21T06:08:50;100433.53;;;23.48;74.44
51524;BME280;37610;51.790;21.590;2023-08-21T06:12:51;100430.26;;;23.70;73.78
51524;BME280;37610;51.790;21.590;2023-08-21T06:16:53;100430.94;;;23.90;73.16
51524;BME280;37610;51.790;21.590;2023-08-21T06:20:55;100432.13;;;24.02;72.77
51524;BME280;37610;51.790;21.590;2023-08-21T06:24:56;100436.95;;;24.14;72.33
51524;BME280;37610;51.790;21.590;2023-08-21T06:28:58;100446.14;;;24.24;72.17
51524;BME280;37610;51.790;21.590;2023-08-21T06:32:59;100444.40;;;24.33;71.95
51524;BME280;37610;51.790;21.590;2023-08-21T06:37:01;100450.27;;;24.38;71.45
51524;BME280;37610;51.790;21.590;2023-08-21T06:41:02;100457.27;;;24.47;71.10
51524;BME280;37610;51.790;21.590;2023-08-21T06:45:05;100456.91;;;24.60;70.94
51524;BME280;37610;51.790;21.590;2023-08-21T06:49:06;100456.64;;;24.70;70.35
51524;BME280;37610;51.790;21.590;2023-08-21T06:53:08;100441.60;;;24.72;70.34
51524;BME280;37610;51.790;21.590;2023-08-21T06:57:10;100433.83;;;24.81;70.16
51524;BME280;37610;51.790;21.590;2023-08-21T07:01:11;100436.61;;;25.01;69.82
51524;BME280;37610;51.790;21.590;2023-08-21T07:05:13;100451.17;;;25.29;69.31
51524;BME280;37610;51.790;21.590;2023-08-21T07:09:15;100465.08;;;25.46;68.53
51524;BME280;37610;51.790;21.590;2023-08-21T07:13:16;100469.04;;;25.61;67.87
51524;BME280;37610;51.790;21.590;2023-08-21T07:17:18;100475.38;;;25.64;67.31
51524;BME280;37610;51.790;21.590;2023-08-21T07:21:19;100475.15;;;25.59;67.35
51524;BME280;37610;51.790;21.590;2023-08-21T07:25:21;100466.22;;;25.56;67.20
51524;BME280;37610;51.790;21.590;2023-08-21T07:29:23;100474.52;;;25.52;67.51
51524;BME280;37610;51.790;21.590;2023-08-21T07:33:25;100495.23;;;25.48;67.55
51524;BME280;37610;51.790;21.590;2023-08-21T07:37:28;100511.66;;;25.42;67.79
51524;BME280;37610;51.790;21.590;2023-08-21T07:41:29;100523.74;;;25.28;68.48
51524;BME280;37610;51.790;21.590;2023-08-21T07:45:31;100536.35;;;25.08;69.01
51524;BME280;37610;51.790;21.590;2023-08-21T07:49:33;100550.70;;;24.77;70.53
51524;BME280;37610;51.790;21.590;2023-08-21T07:53:35;100561.97;;;24.49;71.91
51524;BME280;37610;51.790;21.590;2023-08-21T07:57:36;100551.09;;;24.17;73.02
51524;BME280;37610;51.790;21.590;2023-08-21T08:01:38;100567.46;;;23.99;73.38
51524;BME280;37610;51.790;21.590;2023-08-21T08:05:41;100562.26;;;23.76;74.30
51524;BME280;37610;51.790;21.590;2023-08-21T08:09:43;100565.57;;;23.57;75.12
51524;BME280;37610;51.790;21.590;2023-08-21T08:13:45;100567.77;;;23.46;75.22
51524;BME280;37610;51.790;21.590;2023-08-21T08:17:46;100570.12;;;23.40;75.81
51524;BME280;37610;51.790;21.590;2023-08-21T08:21:48;100565.55;;;23.24;76.84
51524;BME280;37610;51.790;21.590;2023-08-21T08:25:50;100556.21;;;23.12;77.70
51524;BME280;37610;51.790;21.590;2023-08-21T08:29:51;100552.42;;;23.06;77.99
51524;BME280;37610;51.790;21.590;2023-08-21T08:33:54;100549.17;;;23.06;78.34
51524;BME280;37610;51.790;21.590;2023-08-21T08:37:56;100533.90;;;23.07;78.31
51524;BME280;37610;51.790;21.590;2023-08-21T08:42:05;100502.94;;;23.18;78.13
51524;BME280;37610;51.790;21.590;2023-08-21T08:46:08;100494.80;;;23.37;78.17
51524;BME280;37610;51.790;21.590;2023-08-21T08:50:11;100503.02;;;23.52;77.59
51524;BME280;37610;51.790;21.590;2023-08-21T08:54:13;100512.71;;;23.78;77.33
51524;BME280;37610;51.790;21.590;2023-08-21T08:58:16;100521.77;;;24.04;77.25
51524;BME280;37610;51.790;21.590;2023-08-21T09:02:18;100530.91;;;24.12;77.19
51524;BME280;37610;51.790;21.590;2023-08-21T09:06:19;100522.16;;;24.11;77.17
51524;BME280;37610;51.790;21.590;2023-08-21T09:10:25;100507.45;;;24.21;77.00
51524;BME280;37610;51.790;21.590;2023-08-21T09:14:28;100486.11;;;24.37;76.91
51524;BME280;37610;51.790;21.590;2023-08-21T09:18:29;100491.70;;;24.51;76.23
51524;BME280;37610;51.790;21.590;2023-08-21T09:22:31;100521.66;;;24.43;75.87
51524;BME280;37610;51.790;21.590;2023-08-21T09:26:32;100523.17;;;24.19;76.23
51524;BME280;37610;51.790;21.590;2023-08-21T09:30:51;100519.80;;;24.10;76.76
51524;BME280;37610;51.790;21.590;2023-08-21T09:34:53;100523.95;;;24.11;76.75
51524;BME280;37610;51.790;21.590;2023-08-21T09:38:54;100509.55;;;24.28;77.06
51524;BME280;37610;51.790;21.590;2023-08-21T09:42:56;100508.27;;;24.37;77.06
51524;BME280;37610;51.790;21.590;2023-08-21T09:46:58;100504.98;;;24.28;76.99
51524;BME280;37610;51.790;21.590;2023-08-21T09:50:59;100505.34;;;24.25;77.83
51524;BME280;37610;51.790;21.590;2023-08-21T09:55:05;100501.23;;;24.29;77.93
51524;BME280;37610;51.790;21.590;2023-08-21T09:59:08;100489.48;;;24.36;78.07
51524;BME280;37610;51.790;21.590;2023-08-21T10:03:10;100484.06;;;24.50;77.92
51524;BME280;37610;51.790;21.590;2023-08-21T10:07:13;100483.80;;;24.63;77.48
51524;BME280;37610;51.790;21.590;2023-08-21T10:11:17;100479.44;;;24.76;77.31
51524;BME280;37610;51.790;21.590;2023-08-21T10:15:21;100478.43;;;24.87;75.95
51524;BME280;37610;51.790;21.590;2023-08-21T10:19:23;100485.00;;;25.05;75.41
51524;BME280;37610;51.790;21.590;2023-08-21T10:27:29;100477.04;;;25.89;72.66
51524;BME280;37610;51.790;21.590;2023-08-21T10:31:41;100480.41;;;26.17;71.65
51524;BME280;37610;51.790;21.590;2023-08-21T10:35:44;100477.08;;;26.22;71.34
51524;BME280;37610;51.790;21.590;2023-08-21T10:39:56;100476.24;;;26.25;71.21
51524;BME280;37610;51.790;21.590;2023-08-21T10:43:58;100480.65;;;26.41;70.17
51524;BME280;37610;51.790;21.590;2023-08-21T10:47:59;100479.73;;;26.49;69.26
51524;BME280;37610;51.790;21.590;2023-08-21T10:52:02;100480.66;;;26.49;68.47
51524;BME280;37610;51.790;21.590;2023-08-21T10:56:05;100479.20;;;26.53;68.37
51524;BME280;37610;51.790;21.590;2023-08-21T11:00:14;100464.98;;;26.48;66.20
51524;BME280;37610;51.790;21.590;2023-08-21T11:04:16;100465.96;;;26.47;65.18
51524;BME280;37610;51.790;21.590;2023-08-21T11:08:18;100466.16;;;26.48;63.89
51524;BME280;37610;51.790;21.590;2023-08-21T11:12:21;100468.53;;;26.53;63.77
51524;BME280;37610;51.790;21.590;2023-08-21T11:16:24;100471.55;;;26.60;61.83
51524;BME280;37610;51.790;21.590;2023-08-21T11:20:34;100476.65;;;26.60;60.55
51524;BME280;37610;51.790;21.590;2023-08-21T11:24:49;100472.35;;;26.65;59.51
51524;BME280;37610;51.790;21.590;2023-08-21T11:28:52;100470.98;;;26.73;58.82
51524;BME280;37610;51.790;21.590;2023-08-21T11:33:13;100468.52;;;26.88;59.40
51524;BME280;37610;51.790;21.590;2023-08-21T11:37:17;100465.73;;;27.07;58.18
51524;BME280;37610;51.790;21.590;2023-08-21T11:41:19;100463.61;;;27.30;57.87
51524;BME280;37610;51.790;21.590;2023-08-21T11:45:21;100468.49;;;27.42;57.18
51524;BME280;37610;51.790;21.590;2023-08-21T11:49:23;100473.44;;;27.55;56.26
51524;BME280;37610;51.790;21.590;2023-08-21T11:53:38;100470.53;;;27.50;55.34
51524;BME280;37610;51.790;21.590;2023-08-21T11:57:48;100469.76;;;27.62;55.32
51524;BME280;37610;51.790;21.590;2023-08-21T12:01:50;100470.15;;;27.85;55.24
51524;BME280;37610;51.790;21.590;2023-08-21T12:05:54;100469.16;;;28.05;53.61
51524;BME280;37610;51.790;21.590;2023-08-21T12:09:57;100461.96;;;28.08;52.20
51524;BME280;37610;51.790;21.590;2023-08-21T12:13:58;100466.52;;;28.15;52.76
51524;BME280;37610;51.790;21.590;2023-08-21T12:17:59;100469.08;;;28.26;51.09
51524;BME280;37610;51.790;21.590;2023-08-21T12:22:01;100463.89;;;28.16;50.24
51524;BME280;37610;51.790;21.590;2023-08-21T12:26:03;100458.02;;;28.28;51.07
51524;BME280;37610;51.790;21.590;2023-08-21T12:30:05;100462.58;;;28.46;50.17
51524;BME280;37610;51.790;21.590;2023-08-21T12:34:07;100455.58;;;28.55;48.77
51524;BME280;37610;51.790;21.590;2023-08-21T12:38:11;100457.39;;;28.64;49.10
51524;BME280;37610;51.790;21.590;2023-08-21T12:42:13;100445.80;;;28.70;49.75
51524;BME280;37610;51.790;21.590;2023-08-21T12:46:15;100446.59;;;28.89;49.59
51524;BME280;37610;51.790;21.590;2023-08-21T12:50:16;100444.83;;;29.01;48.14
51524;BME280;37610;51.790;21.590;2023-08-21T12:54:18;100444.31;;;29.21;49.42
51524;BME280;37610;51.790;21.590;2023-08-21T12:58:19;100443.52;;;29.56;47.95
51524;BME280;37610;51.790;21.590;2023-08-21T13:02:21;100449.10;;;29.67;46.11
51524;BME280;37610;51.790;21.590;2023-08-21T13:06:24;100439.80;;;29.63;44.66
51524;BME280;37610;51.790;21.590;2023-08-21T13:10:25;100436.08;;;29.75;43.54
51524;BME280;37610;51.790;21.590;2023-08-21T13:14:27;100432.73;;;30.12;41.25
51524;BME280;37610;51.790;21.590;2023-08-21T13:18:28;100435.70;;;30.62;36.88
51524;BME280;37610;51.790;21.590;2023-08-21T13:22:47;100435.09;;;31.08;35.03
51524;BME280;37610;51.790;21.590;2023-08-21T13:26:52;100436.83;;;31.55;33.89
51524;BME280;37610;51.790;21.590;2023-08-21T13:30:54;100424.11;;;32.04;33.84
51524;BME280;37610;51.790;21.590;2023-08-21T13:34:55;100423.42;;;32.22;33.22
51524;BME280;37610;51.790;21.590;2023-08-21T13:38:57;100426.15;;;32.41;32.17
51524;BME280;37610;51.790;21.590;2023-08-21T13:42:58;100419.46;;;32.70;30.73
51524;BME280;37610;51.790;21.590;2023-08-21T13:47:01;100419.79;;;32.96;30.35
51524;BME280;37610;51.790;21.590;2023-08-21T13:51:02;100419.82;;;33.31;28.37
51524;BME280;37610;51.790;21.590;2023-08-21T13:55:04;100412.52;;;33.88;29.50
51524;BME280;37610;51.790;21.590;2023-08-21T13:59:06;100413.46;;;34.20;29.08
51524;BME280;37610;51.790;21.590;2023-08-21T14:03:08;100416.92;;;33.72;29.26
51524;BME280;37610;51.790;21.590;2023-08-21T14:07:10;100415.53;;;33.37;29.75
51524;BME280;37610;51.790;21.590;2023-08-21T14:11:11;100413.41;;;33.06;30.29
51524;BME280;37610;51.790;21.590;2023-08-21T14:15:13;100410.11;;;33.09;29.82
51524;BME280;37610;51.790;21.590;2023-08-21T14:19:14;100409.38;;;34.10;29.52
51524;BME280;37610;51.790;21.590;2023-08-21T14:23:15;100405.08;;;35.05;28.84
51524;BME280;37610;51.790;21.590;2023-08-21T14:27:17;100399.98;;;36.07;26.62
51524;BME280;37610;51.790;21.590;2023-08-21T14:31:18;100403.59;;;35.52;26.99
51524;BME280;37610;51.790;21.590;2023-08-21T14:35:20;100405.80;;;35.37;27.42
51524;BME280;37610;51.790;21.590;2023-08-21T14:39:23;100407.23;;;34.90;27.23
51524;BME280;37610;51.790;21.590;2023-08-21T14:43:24;100408.98;;;34.41;27.96
51524;BME280;37610;51.790;21.590;2023-08-21T14:47:26;100405.06;;;34.05;27.87
51524;BME280;37610;51.790;21.590;2023-08-21T14:51:28;100405.16;;;34.92;27.13
51524;BME280;37610;51.790;21.590;2023-08-21T14:55:29;100399.84;;;37.22;25.42
51524;BME280;37610;51.790;21.590;2023-08-21T14:59:31;100404.70;;;38.53;23.54
51524;BME280;37610;51.790;21.590;2023-08-21T15:03:32;100405.58;;;37.54;23.94
51524;BME280;37610;51.790;21.590;2023-08-21T15:07:34;100400.58;;;36.67;24.78
51524;BME280;37610;51.790;21.590;2023-08-21T15:11:36;100405.58;;;36.37;24.95
51524;BME280;37610;51.790;21.590;2023-08-21T15:15:37;100408.61;;;35.43;25.87
51524;BME280;37610;51.790;21.590;2023-08-21T15:19:39;100403.19;;;34.82;26.54
51524;BME280;37610;51.790;21.590;2023-08-21T15:23:40;100405.06;;;34.86;26.77
51524;BME280;37610;51.790;21.590;2023-08-21T15:27:42;100401.05;;;35.35;26.36
51524;BME280;37610;51.790;21.590;2023-08-21T15:31:43;100397.06;;;36.19;26.19
51524;BME280;37610;51.790;21.590;2023-08-21T15:35:45;100396.59;;;37.78;24.02
51524;BME280;37610;51.790;21.590;2023-08-21T15:39:46;100396.18;;;39.23;22.40
51524;BME280;37610;51.790;21.590;2023-08-21T15:43:47;100400.91;;;40.21;21.26
51524;BME280;37610;51.790;21.590;2023-08-21T15:47:49;100400.92;;;41.65;19.62
51524;BME280;37610;51.790;21.590;2023-08-21T15:51:50;100398.23;;;42.38;19.30
51524;BME280;37610;51.790;21.590;2023-08-21T15:55:52;100396.77;;;40.30;20.72
51524;BME280;37610;51.790;21.590;2023-08-21T15:59:53;100396.21;;;37.67;22.63
51524;BME280;37610;51.790;21.590;2023-08-21T16:03:55;100396.16;;;36.27;24.31
51524;BME280;37610;51.790;21.590;2023-08-21T16:07:56;100403.95;;;35.35;25.49
51524;BME280;37610;51.790;21.590;2023-08-21T16:11:58;100401.84;;;34.23;26.71
51524;BME280;37610;51.790;21.590;2023-08-21T16:15:59;100397.58;;;33.23;28.05
51524;BME280;37610;51.790;21.590;2023-08-21T16:20:01;100396.38;;;32.30;29.01
51524;BME280;37610;51.790;21.590;2023-08-21T16:24:06;100397.91;;;31.62;29.83
51524;BME280;37610;51.790;21.590;2023-08-21T16:28:07;100401.95;;;30.94;30.86
51524;BME280;37610;51.790;21.590;2023-08-21T16:32:09;100407.45;;;30.39;32.10
51524;BME280;37610;51.790;21.590;2023-08-21T16:36:10;100404.59;;;30.00;32.67
51524;BME280;37610;51.790;21.590;2023-08-21T16:40:11;100401.92;;;29.70;33.25
51524;BME280;37610;51.790;21.590;2023-08-21T16:44:13;100409.06;;;29.35;33.66
51524;BME280;37610;51.790;21.590;2023-08-21T16:48:14;100404.95;;;29.11;34.57
51524;BME280;37610;51.790;21.590;2023-08-21T16:52:17;100404.36;;;28.92;34.66
51524;BME280;37610;51.790;21.590;2023-08-21T16:56:20;100405.42;;;28.68;35.14
51524;BME280;37610;51.790;21.590;2023-08-21T17:00:21;100409.37;;;28.45;35.94
51524;BME280;37610;51.790;21.590;2023-08-21T17:04:23;100408.89;;;28.22;36.33
51524;BME280;37610;51.790;21.590;2023-08-21T17:08:24;100409.27;;;28.03;36.78
51524;BME280;37610;51.790;21.590;2023-08-21T17:12:26;100414.21;;;27.82;37.09
51524;BME280;37610;51.790;21.590;2023-08-21T17:16:27;100418.57;;;27.63;37.42
51524;BME280;37610;51.790;21.590;2023-08-21T17:20:29;100414.20;;;27.41;37.84
51524;BME280;37610;51.790;21.590;2023-08-21T17:24:30;100424.98;;;27.24;38.00
51524;BME280;37610;51.790;21.590;2023-08-21T17:28:32;100425.60;;;27.07;38.62
51524;BME280;37610;51.790;21.590;2023-08-21T17:32:33;100425.20;;;26.90;39.12
51524;BME280;37610;51.790;21.590;2023-08-21T17:36:35;100418.59;;;26.76;39.96
51524;BME280;37610;51.790;21.590;2023-08-21T17:40:36;100420.30;;;26.61;40.41
51524;BME280;37610;51.790;21.590;2023-08-21T17:44:38;100419.94;;;26.49;40.52
51524;BME280;37610;51.790;21.590;2023-08-21T17:48:39;100420.23;;;26.29;41.60
51524;BME280;37610;51.790;21.590;2023-08-21T17:52:41;100421.38;;;26.11;41.74
51524;BME280;37610;51.790;21.590;2023-08-21T17:56:42;100424.27;;;25.89;41.99
51524;BME280;37610;51.790;21.590;2023-08-21T18:00:44;100426.41;;;25.67;42.43
51524;BME280;37610;51.790;21.590;2023-08-21T18:04:45;100427.48;;;25.45;43.65
51524;BME280;37610;51.790;21.590;2023-08-21T18:08:48;100427.00;;;25.30;44.49
51524;BME280;37610;51.790;21.590;2023-08-21T18:12:50;100433.89;;;25.20;45.20
51524;BME280;37610;51.790;21.590;2023-08-21T18:16:59;100433.13;;;25.08;45.44
51524;BME280;37610;51.790;21.590;2023-08-21T18:21:04;100426.80;;;25.03;45.35
51524;BME280;37610;51.790;21.590;2023-08-21T18:25:07;100431.49;;;24.86;45.45
51524;BME280;37610;51.790;21.590;2023-08-21T18:29:08;100432.75;;;24.65;46.15
51524;BME280;37610;51.790;21.590;2023-08-21T18:33:10;100434.23;;;24.42;46.85
51524;BME280;37610;51.790;21.590;2023-08-21T18:37:11;100430.46;;;24.26;47.98
51524;BME280;37610;51.790;21.590;2023-08-21T18:41:13;100433.07;;;24.08;48.09
51524;BME280;37610;51.790;21.590;2023-08-21T18:45:14;100434.08;;;23.88;48.62
51524;BME280;37610;51.790;21.590;2023-08-21T18:49:16;100438.05;;;23.68;48.94
51524;BME280;37610;51.790;21.590;2023-08-21T18:53:18;100440.85;;;23.60;49.38
51524;BME280;37610;51.790;21.590;2023-08-21T18:57:20;100441.36;;;23.46;49.81
51524;BME280;37610;51.790;21.590;2023-08-21T19:01:21;100438.42;;;23.37;50.16
51524;BME280;37610;51.790;21.590;2023-08-21T19:05:23;100437.73;;;23.20;50.89
51524;BME280;37610;51.790;21.590;2023-08-21T19:09:24;100444.42;;;23.06;50.96
51524;BME280;37610;51.790;21.590;2023-08-21T19:13:27;100446.10;;;22.94;51.44
51524;BME280;37610;51.790;21.590;2023-08-21T19:17:29;100452.71;;;22.77;51.93
51524;BME280;37610;51.790;21.590;2023-08-21T19:21:30;100453.84;;;22.67;52.35
51524;BME280;37610;51.790;21.590;2023-08-21T19:25:33;100455.42;;;22.61;52.60
51524;BME280;37610;51.790;21.590;2023-08-21T19:29:35;100452.60;;;22.57;52.53
51524;BME280;37610;51.790;21.590;2023-08-21T19:33:37;100453.34;;;22.52;53.36
51524;BME280;37610;51.790;21.590;2023-08-21T19:37:39;100456.15;;;22.39;53.19
51524;BME280;37610;51.790;21.590;2023-08-21T19:41:40;100457.98;;;22.32;53.78
51524;BME280;37610;51.790;21.590;2023-08-21T19:45:42;100459.52;;;22.27;53.84
51524;BME280;37610;51.790;21.590;2023-08-21T19:49:46;100461.55;;;22.20;54.34
51524;BME280;37610;51.790;21.590;2023-08-21T19:53:47;100466.13;;;22.06;54.34
51524;BME280;37610;51.790;21.590;2023-08-21T19:57:49;100467.35;;;21.95;54.91
51524;BME280;37610;51.790;21.590;2023-08-21T20:01:50;100460.88;;;21.81;55.63
51524;BME280;37610;51.790;21.590;2023-08-21T20:06:02;100460.96;;;21.70;55.95
51524;BME280;37610;51.790;21.590;2023-08-21T20:10:05;100461.33;;;21.58;57.16
51524;BME280;37610;51.790;21.590;2023-08-21T20:14:06;100460.48;;;21.51;57.35
51524;BME280;37610;51.790;21.590;2023-08-21T20:18:08;100460.23;;;21.41;57.11
51524;BME280;37610;51.790;21.590;2023-08-21T20:22:09;100459.02;;;21.30;57.17
51524;BME280;37610;51.790;21.590;2023-08-21T20:26:11;100455.75;;;21.21;57.62
51524;BME280;37610;51.790;21.590;2023-08-21T20:30:13;100455.34;;;21.14;57.34
51524;BME280;37610;51.790;21.590;2023-08-21T20:34:15;100455.75;;;21.02;58.14
51524;BME280;37610;51.790;21.590;2023-08-21T20:38:19;100459.13;;;20.94;58.33
51524;BME280;37610;51.790;21.590;2023-08-21T20:42:21;100461.98;;;20.87;58.64
51524;BME280;37610;51.790;21.590;2023-08-21T20:46:22;100461.81;;;20.80;58.93
51524;BME280;37610;51.790;21.590;2023-08-21T20:50:24;100469.54;;;20.73;60.17
51524;BME280;37610;51.790;21.590;2023-08-21T20:54:26;100470.77;;;20.68;60.22